Envoy E145 at Alexandria on Dec 30th 2018, runway excursion on landing

Last Update: January 1, 2019 / 15:15:51 GMT/Zulu time

Bookmark this article
Incident Facts

Date of incident
Dec 30, 2018

Classification
Incident

Airline
Envoy Air

Flight number
MQ-3826

Aircraft Registration
N687JS

Aircraft Type
Embraer ERJ-145

ICAO Type Designator
E145

Airport ICAO Code
KAEX

An Envoy Embraer ERJ-145, registration N687JS performing flight MQ-3826/AA-3826 from Dallas Ft. Worth,TX to Alexandria,LA (USA) with 14 people on board, landed on Alexandria's runway 14 at 23:58L (05:58Z Dec 31st) but veered right off the runway, collided with runway signs and came to a stop with the right main gear off the paved surface of the runway abeam of turnoff taxiway A2 about 1600 meters/5300 feet down the runway. The aircraft was disabled. The passengers disembarked onto the runway and were taken to the terminal.

Related NOTAMs:
!AEX 12/036 AEX RWY 14 5000FT DIST REMAINING SIGN W SIDE MISSING 1812311834-1901311830
!AEX 12/037 AEX RWY 14/32 SAFETY AREA W 4000FT RUTS 1812311834-1901311830

Metars:
KAEX 310753Z 13006KT 1/2SM FG VV005 14/13 A2983 RMK AO2 RAE06 SLP105 P0000 T01390133=
KAEX 310728Z 13004KT 1/2SM FG VV003 12/12 A2984 RMK AO2 RAE06 P0000 T01220122=
KAEX 310653Z 14004KT 1/4SM -RA FG VV002 12/12 A2984 RMK AO2 RAB0559E43B50 SLP109 P0001 T01170117=
KAEX 310645Z 15004KT 1/2SM FG VV002 12/12 A2985 RMK AO2 RAB0559E43 P0001 T01170117=
KAEX 310637Z 14003KT 1/4SM -RA FG VV002 12/12 A2985 RMK AO2 RAB0559 P0001 T01170117=
KAEX 310611Z 14006KT 1/2SM -RA FG VV003 12/11 A2985 RMK AO2 RAB0559 P0001 T01170111=
KAEX 310610Z 14007KT 1/2SM -RA FG VV003 12/11 A2985 RMK AO2 RAB0559 P0001 T01170111=
KAEX 310553Z 13004KT 1/2SM FG VV003 11/11 A2985 RMK AO2 RAE08B41E50 SLP113 P0000 60035 T01110111 10111 20094 401110067 58017=
KAEX 310539Z 13005KT 3/4SM BR VV004 11/11 A2986 RMK AO2 RAE08 P0000 T01110106=
KAEX 310453Z 00000KT 1 1/4SM -RA BR OVC003 11/11 A2987 RMK AO2 RAB42 SLP119 P0001 T01060106=
KAEX 310441Z 00000KT 1 3/4SM BR OVC003 11/11 A2988 RMK AO2 T01060106=
KAEX 310417Z 12004KT 7SM OVC004 11/10 A2987 RMK AO2 T01060100=
KAEX 310353Z 13003KT 10SM OVC006 11/10 A2989 RMK AO2 RAE29 SLP125 P0000 T01060100=
KAEX 310318Z 09003KT 10SM -RA BKN005 BKN042 OVC070 11/10 A2990 RMK AO2 P0000 T01060100=
KAEX 310309Z 00000KT 8SM -RA SCT005 BKN050 OVC065 10/10 A2990 RMK AO2 P0000 T01000100=
KAEX 310253Z 11008KT 4SM -RA BR BKN046 OVC065 10/09 A2990 RMK AO2 RAE38B42 SLP130 P0014 60034 T01000094 58011=
KAEX 310241Z 11009KT 8SM FEW014 BKN041 OVC065 10/09 A2991 RMK AO2 RAE38 P0013 T01000094=
KAEX 310222Z 09005KT 5SM -RA BR SCT005 BKN016 OVC028 10/09 A2992 RMK AO2 P0012 T01000094=
KAEX 310217Z 08004KT 3SM -RA BR SCT005 BKN009 OVC028 10/09 A2992 RMK AO2 P0011 T01000094=
KAEX 310204Z 00000KT 1 3/4SM +RA BR BKN005 OVC011 10/09 A2993 RMK AO2 P0005 T01000089=
KAEX 310153Z 00000KT 7SM -RA OVC009 10/09 A2993 RMK AO2 SLP139 P0006 T01000094=
KAEX 310151Z 00000KT 9SM -RA OVC009 10/09 A2992 RMK AO2 P0005=
KAEX 310102Z 01003KT 3SM -RA BR SCT004 BKN012 OVC017 09/09 A2993 RMK AO2 P0001 T00940094=
KAEX 310053Z 32004KT 1 1/2SM +RA BR SCT004 OVC010 09/09 A2993 RMK AO2 VIS 1V2 SLP141 P0014 T00940094=
KAEX 310044Z 26009KT 1 3/4SM RA BR BKN004 OVC009 09/09 A2995 RMK AO2 VIS 1 1/4V3 PRESRR P0007 T00940089=
KAEX 310039Z 31003KT 2SM RA BR SCT004 OVC009 09/09 A2993 RMK AO2 LTG DSNT SW P0005 T00940094=
KAEX 310010Z 00000KT 3SM -RA BR BKN006 OVC010 09/09 A2994 RMK AO2 P0003 T00940094=
KAEX 310001Z VRB03KT 3SM -RA BR OVC003 09/09 A2993 RMK AO2 P0001 T00940094=
Aircraft Registration Data
Registration mark
N687JS
Country of Registration
United States
Date of Registration
KdnehAqbqgeckhj Subscribe to unlock
Manufacturer
EMBRAER
Aircraft Model / Type
EMB-145LR
Number of Seats
ICAO Aircraft Type
E145
Year of Manufacture
Serial Number
Aircraft Address / Mode S Code (HEX)
Engine Count
Engine Manufacturer
Engine Model
Engine Type
Pounds of Thrust
Main Owner
EiljenljA flgAplbnpAcgp lfm Akdqmdmdicgj nipikkbkmiqAfkdlAjienApcpmfAeAndAAgAlgl Subscribe to unlock
Incident Facts

Date of incident
Dec 30, 2018

Classification
Incident

Airline
Envoy Air

Flight number
MQ-3826

Aircraft Registration
N687JS

Aircraft Type
Embraer ERJ-145

ICAO Type Designator
E145

Airport ICAO Code
KAEX

This article is published under license from Avherald.com. © of text by Avherald.com.
Article source

You can read 2 more free articles without a subscription.

Subscribe now and continue reading without any limits!

Are you a subscriber? Login
Subscribe

Read unlimited articles and receive our daily update briefing. Gain better insights into what is happening in commercial aviation safety.

Send tip

Support AeroInside by sending a small tip amount.

Related articles

Newest articles

Subscribe today

Are you researching aviation incidents? Get access to AeroInside Insights, unlimited read access and receive the daily newsletter.

Pick your plan and subscribe

Partner

Blockaviation logo

A new way to document and demonstrate airworthiness compliance and aircraft value. Find out more.

Virtual Speech logo

ELITE Simulation Solutions is a leading global provider of Flight Simulation Training Devices, IFR training software as well as flight controls and related services. Find out more.

AeroInside Blog
Popular aircraft
Airbus A320
Boeing 737-800
Boeing 737-800 MAX
Popular airlines
American Airlines
United
Delta
Air Canada
Lufthansa
British Airways